Time;durP1;ratioP1;P1;durP2;ratioP2;P2;SDS_P1;SDS_P2;PMS_P1;PMS_P2;Temp;Humidity;BMP_temperature;BMP_pressure;BME280_temperature;BME280_humidity;BME280_pressure;Samples;Min_cycle;Max_cycle;Signal;HPM_P1;HPM_P2
2023/07/17 00:00:17;;;;;;;4.03;1.30;;;20.60;88.60;;;;;;5034577;28;20526;-80
2023/07/17 00:02:43;;;;;;;5.65;1.73;;;20.50;88.80;;;;;;5016942;28;20026;-80
2023/07/17 00:05:10;;;;;;;4.55;1.23;;;20.50;88.90;;;;;;5034425;28;20037;-80
2023/07/17 00:07:36;;;;;;;3.47;1.35;;;20.50;89.00;;;;;;5016600;28;20029;-80
2023/07/17 00:10:03;;;;;;;4.75;1.13;;;20.40;89.10;;;;;;5017277;28;20370;-80
2023/07/17 00:12:30;;;;;;;4.53;1.67;;;20.40;89.50;;;;;;5034286;28;20033;-80
2023/07/17 00:14:56;;;;;;;2.00;1.00;;;20.30;89.80;;;;;;5034280;28;20045;-80
2023/07/17 00:17:21;;;;;;;2.28;1.05;;;20.30;89.80;;;;;;5034688;28;20120;-80
2023/07/17 00:19:55;;;;;;;2.50;1.00;;;20.30;90.00;;;;;;5016256;28;20026;-81
2023/07/17 00:22:21;;;;;;;4.60;1.58;;;20.30;90.00;;;;;;5033662;28;20017;-80
2023/07/17 00:24:47;;;;;;;4.75;1.30;;;20.30;90.00;;;;;;5034111;28;20087;-80
2023/07/17 00:27:13;;;;;;;3.58;1.90;;;20.30;89.90;;;;;;5034104;28;20108;-80
2023/07/17 00:29:40;;;;;;;3.83;1.20;;;20.30;90.00;;;;;;5034047;28;20037;-80
2023/07/17 00:32:06;;;;;;;2.92;1.20;;;20.20;90.10;;;;;;5033899;28;20041;-80
2023/07/17 00:34:32;;;;;;;5.70;1.63;;;20.20;90.30;;;;;;5033834;28;20026;-80
2023/07/17 00:36:58;;;;;;;4.65;1.27;;;20.20;90.30;;;;;;5033510;28;20371;-79
2023/07/17 00:39:24;;;;;;;5.20;1.20;;;20.10;90.40;;;;;;5033861;28;20033;-79
2023/07/17 00:41:51;;;;;;;2.85;1.40;;;20.10;90.40;;;;;;5033875;28;20072;-77
2023/07/17 00:44:17;;;;;;;4.25;1.27;;;20.10;90.40;;;;;;5033604;28;20080;-78
2023/07/17 00:46:43;;;;;;;4.55;1.40;;;20.20;90.60;;;;;;5016169;28;20101;-79
2023/07/17 00:49:10;;;;;;;6.05;1.60;;;20.20;90.50;;;;;;5033340;28;20473;-79
2023/07/17 00:51:38;;;;;;;4.80;1.63;;;20.10;90.50;;;;;;5033728;28;20026;-79
2023/07/17 00:54:04;;;;;;;4.72;1.58;;;20.10;90.60;;;;;;5016034;28;20030;-79
2023/07/17 00:56:30;;;;;;;4.72;1.58;;;20.00;90.60;;;;;;5016332;28;20378;-80
2023/07/17 00:58:57;;;;;;;2.97;1.52;;;20.00;90.70;;;;;;5034052;28;20025;-80
2023/07/17 01:01:23;;;;;;;5.10;1.60;;;20.00;90.80;;;;;;5033695;28;20053;-80
2023/07/17 01:03:54;;;;;;;4.10;1.42;;;19.90;90.90;;;;;;5016201;28;20065;-80
2023/07/17 01:06:20;;;;;;;2.80;1.23;;;19.90;91.00;;;;;;5015863;28;20059;-79
2023/07/17 01:08:46;;;;;;;4.03;1.70;;;19.90;91.00;;;;;;5033826;28;20026;-79
2023/07/17 01:11:12;;;;;;;4.55;1.70;;;19.90;91.00;;;;;;5033667;28;20028;-79
2023/07/17 01:13:45;;;;;;;3.42;1.40;;;19.90;91.00;;;;;;5033498;28;20035;-78
2023/07/17 01:16:12;;;;;;;3.15;1.42;;;19.90;91.10;;;;;;5033978;28;20041;-79
2023/07/17 01:18:37;;;;;;;2.88;1.30;;;19.90;91.10;;;;;;5033607;28;20102;-79
2023/07/17 01:21:06;;;;;;;2.90;1.08;;;19.90;91.20;;;;;;5033574;28;20048;-79
2023/07/17 01:23:32;;;;;;;2.85;1.25;;;19.90;91.20;;;;;;5033113;28;20025;-78
2023/07/17 01:25:58;;;;;;;5.93;1.50;;;20.00;91.30;;;;;;5033412;28;20037;-79
2023/07/17 01:28:24;;;;;;;2.60;1.05;;;20.00;91.30;;;;;;5016155;28;20037;-79
2023/07/17 01:30:50;;;;;;;4.57;1.65;;;20.10;91.20;;;;;;5033303;28;20068;-78
2023/07/17 01:33:16;;;;;;;3.58;1.63;;;20.10;91.20;;;;;;5033415;28;20026;-78
2023/07/17 01:35:41;;;;;;;4.72;1.55;;;20.10;91.20;;;;;;5033126;28;20435;-79
2023/07/17 01:38:08;;;;;;;2.00;1.17;;;20.10;91.20;;;;;;5015228;28;20057;-79
2023/07/17 01:40:33;;;;;;;3.10;1.30;;;20.20;91.30;;;;;;5015544;28;20038;-79
2023/07/17 01:42:59;;;;;;;4.45;1.38;;;20.20;91.30;;;;;;5032735;28;20029;-80
2023/07/17 01:45:25;;;;;;;2.33;1.30;;;20.20;91.20;;;;;;5033405;28;20060;-80
2023/07/17 01:47:50;;;;;;;3.67;1.35;;;20.20;91.30;;;;;;5015674;28;20371;-80
2023/07/17 01:50:16;;;;;;;4.95;2.00;;;20.20;91.30;;;;;;5015576;28;20037;-80
2023/07/17 01:52:42;;;;;;;3.63;1.30;;;20.10;91.40;;;;;;5032803;28;20470;-80
2023/07/17 01:55:08;;;;;;;3.80;1.67;;;20.10;91.50;;;;;;5015439;28;20038;-80
2023/07/17 01:57:33;;;;;;;3.05;1.50;;;20.10;91.50;;;;;;5015384;28;20378;-80
2023/07/17 01:59:59;;;;;;;3.38;1.48;;;20.00;91.40;;;;;;5015225;28;20031;-80
2023/07/17 02:02:25;;;;;;;5.10;1.80;;;20.00;91.60;;;;;;5015131;28;20033;-80
2023/07/17 02:04:51;;;;;;;4.88;2.50;;;19.90;91.60;;;;;;5016019;28;20088;-80
2023/07/17 02:07:17;;;;;;;7.47;2.78;;;19.90;91.80;;;;;;5032957;28;20049;-80
2023/07/17 02:09:42;;;;;;;4.82;1.73;;;19.90;91.80;;;;;;5032946;28;20099;-80
2023/07/17 02:12:08;;;;;;;4.93;2.10;;;19.80;91.80;;;;;;5033369;28;20049;-80
2023/07/17 02:14:34;;;;;;;3.53;1.80;;;19.80;92.00;;;;;;5032797;28;20030;-80
2023/07/17 02:17:00;;;;;;;3.33;1.45;;;19.70;91.90;;;;;;5032922;28;20075;-79
2023/07/17 02:19:26;;;;;;;3.83;1.70;;;19.70;92.00;;;;;;5032870;28;20037;-79
2023/07/17 02:21:52;;;;;;;4.20;1.70;;;19.70;92.10;;;;;;5032848;28;20429;-80
2023/07/17 02:24:17;;;;;;;5.40;2.03;;;19.70;92.10;;;;;;5032562;28;20038;-80
2023/07/17 02:26:43;;;;;;;5.20;1.92;;;19.70;92.10;;;;;;5015162;28;20041;-80
2023/07/17 02:29:09;;;;;;;6.85;2.20;;;19.70;92.10;;;;;;5033244;28;20030;-79
2023/07/17 02:31:34;;;;;;;5.20;1.90;;;19.60;92.10;;;;;;5015212;28;20030;-80
2023/07/17 02:34:00;;;;;;;3.90;1.42;;;19.60;92.10;;;;;;5033105;28;20029;-79
2023/07/17 02:36:25;;;;;;;4.80;2.22;;;19.50;92.20;;;;;;5015002;28;20057;-79
2023/07/17 02:38:51;;;;;;;4.38;1.90;;;19.50;92.40;;;;;;5033014;28;20037;-79
2023/07/17 02:41:17;;;;;;;5.82;2.35;;;19.50;92.40;;;;;;5032729;28;20033;-79
2023/07/17 02:43:42;;;;;;;6.95;2.13;;;19.40;92.40;;;;;;5014823;28;20462;-79
2023/07/17 02:46:08;;;;;;;6.20;1.80;;;19.40;92.60;;;;;;5034126;28;20052;-79
2023/07/17 02:48:34;;;;;;;3.40;1.52;;;19.40;92.50;;;;;;5036309;28;20034;-80
2023/07/17 02:50:59;;;;;;;3.83;1.73;;;19.40;92.40;;;;;;5036288;28;20080;-79
2023/07/17 02:53:25;;;;;;;3.42;1.80;;;19.50;92.50;;;;;;5018492;28;20036;-79
2023/07/17 02:55:51;;;;;;;3.90;1.75;;;19.50;92.50;;;;;;5036366;28;20070;-79
2023/07/17 02:58:17;;;;;;;4.22;1.25;;;19.50;92.50;;;;;;5035815;28;20037;-80
2023/07/17 03:00:44;;;;;;;2.22;1.33;;;19.50;92.50;;;;;;5036010;28;20041;-80
2023/07/17 03:03:09;;;;;;;6.18;1.83;;;19.50;92.50;;;;;;5036201;28;20095;-80
2023/07/17 03:05:35;;;;;;;4.28;2.00;;;19.40;92.50;;;;;;5017921;28;20433;-80
2023/07/17 03:08:01;;;;;;;3.78;1.83;;;19.40;92.40;;;;;;5036538;28;20033;-80
2023/07/17 03:10:27;;;;;;;4.97;2.03;;;19.40;92.40;;;;;;5035582;28;20144;-78
2023/07/17 03:12:53;;;;;;;3.03;1.55;;;19.40;92.50;;;;;;5035963;28;20108;-81
2023/07/17 03:15:19;;;;;;;3.30;1.27;;;19.50;92.50;;;;;;5017755;28;20104;-80
2023/07/17 03:17:44;;;;;;;5.50;2.10;;;19.40;92.50;;;;;;5035727;28;20433;-79
2023/07/17 03:20:10;;;;;;;3.08;1.30;;;19.40;92.50;;;;;;5017884;28;20030;-79
2023/07/17 03:22:37;;;;;;;2.90;1.02;;;19.40;92.50;;;;;;5017551;28;20059;-78
2023/07/17 03:25:05;;;;;;;3.63;1.70;;;19.50;92.50;;;;;;5035640;28;20486;-79
2023/07/17 03:27:31;;;;;;;5.65;1.60;;;19.50;92.40;;;;;;5018227;28;20373;-79
2023/07/17 03:29:56;;;;;;;4.82;1.70;;;19.40;92.30;;;;;;5035095;28;20482;-79
2023/07/17 03:32:22;;;;;;;5.30;1.73;;;19.40;92.40;;;;;;5035362;28;20044;-78
2023/07/17 03:34:47;;;;;;;4.25;1.60;;;19.40;92.30;;;;;;5035224;28;20474;-79
2023/07/17 03:37:13;;;;;;;5.80;1.90;;;19.40;92.40;;;;;;5035292;28;20084;-78
2023/07/17 03:39:39;;;;;;;5.75;1.38;;;19.40;92.50;;;;;;5017959;28;20096;-79
2023/07/17 03:42:10;;;;;;;4.50;1.80;;;19.40;92.40;;;;;;5001270;28;20374;-78
2023/07/17 03:44:36;;;;;;;5.22;1.75;;;19.40;92.30;;;;;;5035736;28;20028;-78
2023/07/17 03:47:02;;;;;;;3.65;1.80;;;19.30;92.20;;;;;;5017370;28;20033;-78
2023/07/17 03:49:28;;;;;;;4.10;1.55;;;19.30;92.10;;;;;;5035064;28;20092;-79
2023/07/17 03:51:53;;;;;;;7.28;1.90;;;19.20;92.20;;;;;;5017686;28;20065;-79
2023/07/17 03:54:19;;;;;;;4.88;1.88;;;19.20;92.20;;;;;;5035151;28;20026;-78
2023/07/17 03:56:44;;;;;;;9.98;1.83;;;19.20;92.20;;;;;;5033949;28;20037;-78
2023/07/17 03:59:10;;;;;;;5.03;1.67;;;19.00;92.30;;;;;;5016492;28;20029;-81
2023/07/17 04:01:36;;;;;;;5.75;1.75;;;19.00;92.40;;;;;;5035134;28;20473;-78
2023/07/17 04:04:01;;;;;;;5.78;1.85;;;19.00;92.40;;;;;;5017135;28;20465;-78
2023/07/17 04:06:27;;;;;;;5.22;1.48;;;19.00;92.50;;;;;;5016914;28;20386;-79
2023/07/17 04:08:52;;;;;;;4.38;1.75;;;19.00;92.50;;;;;;5016933;28;20026;-78
2023/07/17 04:11:18;;;;;;;5.20;1.75;;;18.90;92.50;;;;;;5017255;28;20025;-78
2023/07/17 04:13:44;;;;;;;5.80;1.80;;;18.90;92.70;;;;;;5016889;28;20036;-79
2023/07/17 04:16:12;;;;;;;6.20;1.98;;;18.90;92.80;;;;;;5034455;28;20060;-78
2023/07/17 04:18:38;;;;;;;5.70;1.83;;;18.90;92.80;;;;;;5016407;28;20034;-79
2023/07/17 04:21:03;;;;;;;5.15;2.00;;;18.80;92.80;;;;;;5034240;28;20026;-79
2023/07/17 04:23:29;;;;;;;6.57;2.17;;;18.70;92.80;;;;;;5016990;28;20363;-80
2023/07/17 04:25:54;;;;;;;5.22;1.58;;;18.70;93.10;;;;;;5034351;28;20390;-79
2023/07/17 04:28:20;;;;;;;7.32;2.08;;;18.60;93.10;;;;;;5000202;28;20038;-78
2023/07/17 04:30:46;;;;;;;6.18;2.53;;;18.60;93.20;;;;;;5034697;28;20025;-80
2023/07/17 04:33:11;;;;;;;5.65;1.75;;;18.60;93.20;;;;;;5017038;28;20482;-79
2023/07/17 04:35:38;;;;;;;4.75;1.70;;;18.60;93.30;;;;;;5016477;28;20072;-79
2023/07/17 04:38:04;;;;;;;4.97;1.80;;;18.60;93.40;;;;;;5033987;28;20092;-80
2023/07/17 04:40:30;;;;;;;4.65;1.63;;;18.70;93.40;;;;;;5034072;28;20046;-79
2023/07/17 04:42:59;;;;;;;5.97;2.33;;;18.70;93.40;;;;;;5016394;28;20112;-80
2023/07/17 04:45:25;;;;;;;4.82;1.80;;;18.70;93.20;;;;;;5034073;28;20021;-79
2023/07/17 04:47:50;;;;;;;5.63;2.03;;;18.70;93.10;;;;;;5033911;28;20095;-75
2023/07/17 04:50:16;;;;;;;7.18;2.38;;;18.70;93.20;;;;;;5033984;28;20037;-80
2023/07/17 04:52:41;;;;;;;9.27;3.05;;;18.70;93.30;;;;;;5034209;28;20033;-80
2023/07/17 04:55:07;;;;;;;5.25;2.40;;;18.70;93.20;;;;;;5034108;28;20091;-80
2023/07/17 04:57:33;;;;;;;8.55;2.65;;;18.60;93.20;;;;;;5034043;28;20045;-80
2023/07/17 04:59:59;;;;;;;7.50;2.53;;;18.60;93.20;;;;;;5033178;28;20113;-79
2023/07/17 05:02:24;;;;;;;5.60;2.58;;;18.60;93.30;;;;;;5033237;28;20081;-79
2023/07/17 05:04:50;;;;;;;8.77;2.63;;;18.60;93.30;;;;;;5033671;28;20031;-79
2023/07/17 05:07:16;;;;;;;11.40;2.90;;;18.50;93.30;;;;;;5033862;28;20088;-80
2023/07/17 05:09:41;;;;;;;6.18;2.50;;;18.60;93.40;;;;;;5033109;28;20029;-80
2023/07/17 05:12:07;;;;;;;7.90;2.47;;;18.50;93.30;;;;;;5033035;28;20124;-78
2023/07/17 05:14:33;;;;;;;9.05;3.30;;;18.50;93.50;;;;;;5033884;28;20029;-80
2023/07/17 05:16:58;;;;;;;7.15;2.60;;;18.50;93.40;;;;;;5033527;28;20029;-80
2023/07/17 05:19:24;;;;;;;7.05;3.05;;;18.50;93.40;;;;;;5016035;28;20033;-79
2023/07/17 05:21:50;;;;;;;6.40;2.97;;;18.50;93.20;;;;;;5015343;28;20398;-79
2023/07/17 05:24:15;;;;;;;7.60;3.60;;;18.40;93.30;;;;;;5033217;28;20029;-79
2023/07/17 05:26:41;;;;;;;6.35;2.03;;;18.40;93.50;;;;;;5016093;28;20033;-80
2023/07/17 05:29:06;;;;;;;10.27;4.15;;;18.50;93.50;;;;;;5033396;28;20061;-79
2023/07/17 05:31:32;;;;;;;11.68;3.50;;;18.50;93.40;;;;;;5033208;28;20142;-80
2023/07/17 05:33:58;;;;;;;6.75;3.05;;;18.50;93.40;;;;;;5033620;28;20033;-79
2023/07/17 05:36:23;;;;;;;8.30;3.92;;;18.50;93.50;;;;;;5015395;28;20091;-80
2023/07/17 05:38:49;;;;;;;9.40;3.53;;;18.50;93.20;;;;;;5015537;28;20049;-80
2023/07/17 05:41:15;;;;;;;11.15;4.05;;;18.50;93.20;;;;;;5033063;28;20469;-80
2023/07/17 05:43:40;;;;;;;12.80;4.32;;;18.50;93.30;;;;;;5032818;28;20025;-81
2023/07/17 05:46:06;;;;;;;10.25;4.10;;;18.40;93.20;;;;;;5032861;28;20118;-80
2023/07/17 05:48:32;;;;;;;11.15;4.65;;;18.30;93.20;;;;;;5032813;28;20422;-81
2023/07/17 05:50:57;;;;;;;11.35;4.30;;;18.30;93.40;;;;;;5033205;28;20049;-80
2023/07/17 05:53:24;;;;;;;11.10;5.32;;;18.20;93.40;;;;;;4998864;28;20029;-79
2023/07/17 05:55:49;;;;;;;14.68;5.20;;;18.20;93.30;;;;;;5015115;28;20038;-80
2023/07/17 05:58:15;;;;;;;12.93;4.63;;;18.10;93.60;;;;;;5032733;28;20550;-80
2023/07/17 06:00:41;;;;;;;10.63;4.88;;;18.20;93.80;;;;;;5015653;28;20388;-80
2023/07/17 06:03:06;;;;;;;11.40;5.47;;;18.20;93.70;;;;;;5014932;28;20417;-77
2023/07/17 06:05:38;;;;;;;15.95;5.75;;;18.20;93.70;;;;;;5033498;28;20095;-82
2023/07/17 06:08:08;;;;;;;9.32;4.75;;;18.20;93.70;;;;;;5039675;28;20085;-84
2023/07/17 06:10:34;;;;;;;12.23;5.15;;;18.20;93.60;;;;;;5036058;28;20037;-84
2023/07/17 06:13:00;;;;;;;20.92;6.80;;;18.20;93.60;;;;;;5018636;28;20434;-83
2023/07/17 06:15:27;;;;;;;15.68;4.95;;;18.30;93.50;;;;;;5017119;28;20065;-76
2023/07/17 06:17:52;;;;;;;15.02;5.00;;;18.40;93.80;;;;;;5015134;28;20075;-77
2023/07/17 06:20:20;;;;;;;16.10;6.70;;;18.50;93.60;;;;;;5032550;28;20116;-78
2023/07/17 06:22:46;;;;;;;13.00;6.18;;;18.70;93.10;;;;;;5019067;28;20118;-73
2023/07/17 06:25:12;;;;;;;12.55;5.75;;;18.80;93.00;;;;;;5036561;28;20072;-73
2023/07/17 06:27:38;;;;;;;11.85;5.47;;;18.90;92.80;;;;;;5002201;28;20061;-74
2023/07/17 06:30:05;;;;;;;12.38;5.85;;;19.10;92.50;;;;;;5036178;28;20108;-74
2023/07/17 06:32:30;;;;;;;16.38;7.13;;;19.20;92.40;;;;;;5001870;28;20366;-74
2023/07/17 06:34:56;;;;;;;13.73;5.82;;;19.20;91.80;;;;;;5036135;28;20041;-74
2023/07/17 06:37:21;;;;;;;11.18;6.32;;;19.30;92.00;;;;;;5018307;28;20065;-75
2023/07/17 06:39:47;;;;;;;13.50;6.82;;;19.40;91.80;;;;;;5036183;28;20032;-76
2023/07/17 06:42:13;;;;;;;13.30;5.88;;;19.40;91.90;;;;;;5036033;28;20029;-77
2023/07/17 06:44:39;;;;;;;12.80;5.45;;;19.40;91.80;;;;;;5018563;28;20108;-74
2023/07/17 06:47:05;;;;;;;10.50;5.43;;;19.50;91.70;;;;;;5018106;28;20025;-75
2023/07/17 06:49:30;;;;;;;12.82;5.85;;;19.60;91.50;;;;;;5002138;28;20531;-72
2023/07/17 06:51:56;;;;;;;12.18;5.97;;;19.80;91.40;;;;;;5035857;28;20048;-73
2023/07/17 06:54:22;;;;;;;17.02;6.50;;;19.90;91.20;;;;;;5017999;28;20033;-74
2023/07/17 06:56:47;;;;;;;14.43;7.43;;;19.90;91.00;;;;;;5001505;28;20041;-73
2023/07/17 06:59:13;;;;;;;11.25;5.72;;;19.90;90.90;;;;;;5017977;28;20026;-73
2023/07/17 07:01:39;;;;;;;12.57;5.68;;;19.90;90.90;;;;;;5035952;28;20033;-74
2023/07/17 07:04:04;;;;;;;12.18;5.25;;;19.90;91.00;;;;;;5001557;28;20033;-74
2023/07/17 07:06:30;;;;;;;12.38;5.45;;;20.00;90.90;;;;;;5035711;28;20030;-74
2023/07/17 07:08:56;;;;;;;16.05;5.60;;;20.00;90.80;;;;;;5035918;28;20546;-74
2023/07/17 07:11:22;;;;;;;12.25;5.70;;;20.00;90.60;;;;;;5035924;28;20057;-74
2023/07/17 07:13:47;;;;;;;16.00;6.78;;;19.90;90.60;;;;;;5017493;28;20030;-74
2023/07/17 07:16:13;;;;;;;11.75;5.53;;;19.70;90.60;;;;;;5017640;28;20042;-73
2023/07/17 07:18:39;;;;;;;15.43;7.13;;;19.70;90.90;;;;;;5017945;28;20459;-74
2023/07/17 07:21:04;;;;;;;12.38;5.72;;;19.70;90.90;;;;;;5035618;28;20382;-74
2023/07/17 07:23:30;;;;;;;10.88;5.45;;;19.70;90.90;;;;;;5017674;28;20056;-73
2023/07/17 07:25:56;;;;;;;11.82;5.68;;;19.70;90.90;;;;;;5017595;28;20030;-73
2023/07/17 07:28:21;;;;;;;15.18;5.85;;;19.70;90.90;;;;;;5035003;28;20030;-73
2023/07/17 07:30:53;;;;;;;13.20;6.20;;;19.70;90.80;;;;;;5001050;28;20029;-74
2023/07/17 07:33:18;;;;;;;12.23;5.87;;;19.60;90.90;;;;;;5034752;28;20026;-74
2023/07/17 07:35:44;;;;;;;15.13;5.35;;;19.60;91.10;;;;;;5017438;28;20034;-73
2023/07/17 07:38:10;;;;;;;16.67;5.43;;;19.70;91.20;;;;;;5004464;28;20465;-73
2023/07/17 07:40:35;;;;;;;14.82;5.55;;;19.80;91.10;;;;;;5014747;28;20092;-75
2023/07/17 07:43:02;;;;;;;13.05;5.38;;;19.80;91.10;;;;;;4997575;28;20430;-74
2023/07/17 07:45:27;;;;;;;12.63;5.22;;;19.80;90.70;;;;;;4997855;28;20022;-74
2023/07/17 07:47:54;;;;;;;14.43;5.05;;;20.00;90.80;;;;;;4982067;28;20507;-74
2023/07/17 07:50:21;;;;;;;12.15;5.03;;;20.10;90.60;;;;;;5015064;28;20030;-75
2023/07/17 07:52:47;;;;;;;9.90;4.45;;;20.20;90.30;;;;;;5015217;28;20092;-74
2023/07/17 07:55:12;;;;;;;13.55;5.43;;;20.30;90.10;;;;;;4997375;28;20042;-76
2023/07/17 07:57:38;;;;;;;14.18;5.00;;;20.30;89.80;;;;;;4998059;28;20072;-76
2023/07/17 08:00:05;;;;;;;10.13;4.68;;;20.10;89.10;;;;;;5015214;28;20307;-74
2023/07/17 08:02:31;;;;;;;10.20;4.43;;;20.00;89.60;;;;;;4997321;28;20038;-74
2023/07/17 08:04:56;;;;;;;11.80;4.25;;;20.00;88.80;;;;;;4997484;28;20032;-75
2023/07/17 08:07:22;;;;;;;9.23;3.90;;;19.80;88.90;;;;;;4997511;28;20148;-75
2023/07/17 08:09:48;;;;;;;10.45;4.07;;;19.70;89.70;;;;;;5014473;28;20462;-75
2023/07/17 08:12:13;;;;;;;10.85;4.30;;;19.70;89.90;;;;;;5014781;28;20025;-75
2023/07/17 08:14:39;;;;;;;10.50;3.88;;;19.80;89.80;;;;;;5014537;28;20033;-75
2023/07/17 08:17:05;;;;;;;12.38;5.22;;;19.90;88.80;;;;;;5014876;28;20041;-74
2023/07/17 08:19:31;;;;;;;9.40;4.10;;;20.10;88.70;;;;;;4981009;28;20022;-76
2023/07/17 08:21:56;;;;;;;8.85;3.72;;;20.20;89.00;;;;;;5014610;28;20089;-75
2023/07/17 08:24:22;;;;;;;9.48;3.85;;;20.20;88.30;;;;;;5014536;28;20026;-75
2023/07/17 08:26:47;;;;;;;10.02;4.15;;;20.10;87.90;;;;;;4980960;28;20104;-75
2023/07/17 08:29:13;;;;;;;7.95;3.78;;;20.10;88.40;;;;;;5014423;28;20103;-77
2023/07/17 08:31:40;;;;;;;9.43;4.18;;;20.20;88.70;;;;;;5014329;28;20030;-77
2023/07/17 08:34:06;;;;;;;10.57;4.07;;;20.30;88.50;;;;;;5014363;28;20049;-76
2023/07/17 08:36:32;;;;;;;8.80;3.50;;;20.30;88.00;;;;;;5014607;28;20443;-77
2023/07/17 08:38:58;;;;;;;8.30;3.47;;;20.30;88.00;;;;;;4996226;28;20056;-76
2023/07/17 08:41:24;;;;;;;10.15;4.22;;;20.20;87.70;;;;;;5014322;28;20077;-76
2023/07/17 08:43:51;;;;;;;11.00;4.00;;;20.10;86.80;;;;;;5013669;28;20354;-76
2023/07/17 08:46:16;;;;;;;7.07;3.00;;;20.10;87.80;;;;;;5014384;28;20417;-77
2023/07/17 08:48:43;;;;;;;12.98;4.03;;;20.20;88.30;;;;;;4996940;28;20030;-76
2023/07/17 08:51:12;;;;;;;6.97;3.50;;;20.20;88.20;;;;;;5014110;28;20385;-76
2023/07/17 08:53:44;;;;;;;6.63;3.35;;;20.30;86.90;;;;;;4996468;28;20030;-75
2023/07/17 08:56:11;;;;;;;9.35;3.15;;;20.20;86.50;;;;;;5013786;28;20037;-76
2023/07/17 08:58:37;;;;;;;10.90;3.42;;;20.20;87.30;;;;;;5013924;28;20025;-77
2023/07/17 09:01:03;;;;;;;6.30;2.80;;;20.30;86.50;;;;;;5014242;28;20033;-79
2023/07/17 09:03:32;;;;;;;10.45;3.70;;;20.30;85.90;;;;;;5014430;28;20446;-77
2023/07/17 09:05:58;;;;;;;12.65;3.47;;;20.40;85.70;;;;;;5013548;28;20526;-75
2023/07/17 09:08:24;;;;;;;7.70;3.17;;;20.40;86.30;;;;;;5014317;28;20044;-76
2023/07/17 09:11:06;;;;;;;6.70;2.83;;;20.40;86.60;;;;;;5014035;28;20451;-76
2023/07/17 09:13:50;;;;;;;;;;;20.40;85.00;;;;;;5014238;28;20084;-76
2023/07/17 09:16:23;;;;;;;6.47;2.85;;;20.50;84.30;;;;;;5013643;28;19910;-75
2023/07/17 09:18:51;;;;;;;7.32;2.65;;;20.60;84.30;;;;;;5014334;28;20028;-75
2023/07/17 09:21:18;;;;;;;11.05;2.97;;;20.60;84.50;;;;;;5013794;28;20066;-74
2023/07/17 09:24:04;;;;;;;6.10;2.40;;;20.60;83.60;;;;;;5013749;28;20018;-73
2023/07/17 09:26:30;;;;;;;11.38;3.20;;;20.40;84.40;;;;;;5013709;28;20421;-74
2023/07/17 09:28:57;;;;;;;8.82;2.78;;;20.40;84.90;;;;;;5013619;28;20084;-73
2023/07/17 09:31:25;;;;;;;10.13;3.15;;;20.40;85.70;;;;;;5013619;28;20025;-74
2023/07/17 09:33:52;;;;;;;8.57;2.67;;;20.60;86.00;;;;;;4995888;28;20324;-74
2023/07/17 09:36:17;;;;;;;9.07;2.33;;;20.70;83.80;;;;;;5013552;28;20117;-73
2023/07/17 09:38:43;;;;;;;7.03;2.30;;;20.90;83.10;;;;;;5030245;28;20129;-74
2023/07/17 09:41:20;;;;;;;8.45;2.30;;;21.10;82.90;;;;;;5015685;28;20026;-73
2023/07/17 09:44:03;;;;;;;5.75;2.17;;;21.20;81.90;;;;;;5033147;28;20079;-74
2023/07/17 09:46:30;;;;;;;6.93;2.10;;;21.30;82.10;;;;;;5033579;28;20036;-74
2023/07/17 09:48:56;;;;;;;9.25;2.38;;;21.50;80.50;;;;;;5033274;28;20548;-75
2023/07/17 09:51:23;;;;;;;7.63;2.88;;;21.30;79.10;;;;;;5033148;28;20053;-74
2023/07/17 09:53:49;;;;;;;9.02;2.00;;;21.10;80.30;;;;;;5033397;28;20022;-75
2023/07/17 09:56:18;;;;;;;7.97;2.00;;;21.00;81.50;;;;;;5037279;28;20036;-73
2023/07/17 09:58:51;;;;;;;8.10;2.00;;;21.10;82.00;;;;;;5037016;28;20057;-74
2023/07/17 10:01:19;;;;;;;5.75;2.03;;;21.30;82.70;;;;;;5037426;28;20030;-77
2023/07/17 10:03:49;;;;;;;6.65;1.65;;;21.40;82.10;;;;;;5019069;28;20032;-82
2023/07/17 10:06:17;;;;;;;9.23;1.92;;;21.40;80.40;;;;;;5037098;28;20028;-77
2023/07/17 10:08:49;;;;;;;8.77;2.63;;;21.20;79.80;;;;;;5036914;28;20476;-76
2023/07/17 10:11:19;;;;;;;6.47;1.85;;;21.00;81.50;;;;;;5019398;28;20022;-76
2023/07/17 10:13:47;;;;;;;7.20;2.78;;;20.80;82.90;;;;;;5037141;28;20055;-79
2023/07/17 10:16:15;;;;;;;10.73;2.38;;;20.80;84.10;;;;;;5020002;28;20029;-82
2023/07/17 10:18:54;;;;;;;7.85;2.40;;;20.80;83.70;;;;;;5037590;28;20021;-78
2023/07/17 10:21:21;;;;;;;9.90;2.80;;;20.70;83.20;;;;;;5036347;28;20107;-78
2023/07/17 10:23:48;;;;;;;11.40;2.80;;;20.60;83.70;;;;;;5018897;28;20175;-78
2023/07/17 10:26:21;;;;;;;9.73;2.60;;;20.50;83.60;;;;;;5019182;28;20029;-79
2023/07/17 10:28:53;;;;;;;8.45;2.65;;;20.60;83.50;;;;;;5036525;28;20120;-78
2023/07/17 10:31:21;;;;;;;8.02;2.65;;;20.70;84.40;;;;;;5036420;28;20017;-79
2023/07/17 10:34:01;;;;;;;9.73;2.88;;;20.80;84.00;;;;;;5036358;28;20450;-77
2023/07/17 10:36:44;;;;;;;8.63;2.60;;;20.90;83.90;;;;;;5018869;28;20374;-79
2023/07/17 10:39:18;;;;;;;10.65;2.70;;;21.00;83.90;;;;;;5036331;28;20045;-78
2023/07/17 10:41:44;;;;;;;9.63;2.85;;;21.10;82.60;;;;;;5036565;28;20025;-78
2023/07/17 10:44:18;;;;;;;3.63;1.50;;;21.10;81.00;;;;;;5035900;28;20084;-78
2023/07/17 10:46:44;;;;;;;3.25;0.95;;;21.00;81.80;;;;;;5036471;28;20025;-77
2023/07/17 10:49:15;;;;;;;3.63;0.90;;;20.70;82.60;;;;;;5018609;28;20064;-77
2023/07/17 10:51:45;;;;;;;5.40;0.90;;;20.30;83.90;;;;;;5036086;28;20021;-83
2023/07/17 10:54:12;;;;;;;5.00;1.05;;;20.00;85.80;;;;;;5018805;28;20083;-78
2023/07/17 10:56:38;;;;;;;2.85;0.80;;;19.80;87.70;;;;;;5036048;28;20040;-76
2023/07/17 10:59:04;;;;;;;2.45;0.60;;;19.60;89.00;;;;;;5018274;28;20384;-76
2023/07/17 11:01:32;;;;;;;2.40;0.50;;;19.40;89.10;;;;;;5036038;28;20029;-75
2023/07/17 11:03:58;;;;;;;3.90;0.88;;;19.30;90.00;;;;;;5035773;28;20433;-76
2023/07/17 11:06:26;;;;;;;2.83;0.85;;;19.40;90.50;;;;;;5017623;28;20073;-79
2023/07/17 11:08:53;;;;;;;3.10;0.50;;;19.60;92.10;;;;;;5018152;28;20108;-77
2023/07/17 11:11:19;;;;;;;1.60;0.68;;;19.90;91.60;;;;;;5035612;28;20026;-77
2023/07/17 11:13:49;;;;;;;3.70;0.90;;;20.10;90.90;;;;;;5035397;28;20033;-78
2023/07/17 11:16:16;;;;;;;3.53;0.75;;;20.10;90.10;;;;;;5035668;28;20462;-78
2023/07/17 11:18:53;;;;;;;4.68;1.10;;;20.30;90.80;;;;;;5035807;28;20083;-81
2023/07/17 11:21:24;;;;;;;4.00;0.82;;;20.50;90.40;;;;;;5035742;28;20037;-80
2023/07/17 11:23:57;;;;;;;3.10;0.77;;;20.50;90.00;;;;;;5035834;28;20024;-79
2023/07/17 11:26:27;;;;;;;3.90;0.70;;;20.60;89.90;;;;;;5035559;28;20036;-77
2023/07/17 11:28:58;;;;;;;4.25;1.05;;;20.70;89.80;;;;;;5017759;28;20030;-76
2023/07/17 11:31:25;;;;;;;3.22;0.85;;;20.90;90.10;;;;;;5034946;28;20025;-75
2023/07/17 11:33:59;;;;;;;4.53;0.90;;;21.00;88.50;;;;;;5035315;28;20461;-76
2023/07/17 11:36:26;;;;;;;4.50;0.68;;;21.20;88.80;;;;;;5035569;28;20045;-76
2023/07/17 11:38:57;;;;;;;4.50;1.30;;;21.20;88.90;;;;;;4998472;28;20049;-76
2023/07/17 11:41:24;;;;;;;5.90;1.48;;;21.20;88.60;;;;;;4998152;28;20113;-76
2023/07/17 11:43:57;;;;;;;4.38;1.10;;;21.20;87.50;;;;;;4997363;28;20490;-78
2023/07/17 11:46:23;;;;;;;3.10;1.30;;;21.30;88.10;;;;;;5015162;28;20034;-77
2023/07/17 11:48:53;;;;;;;4.47;1.00;;;21.30;88.10;;;;;;5015186;28;20037;-78
2023/07/17 11:51:23;;;;;;;2.80;1.02;;;21.30;87.60;;;;;;5015181;28;20022;-77
2023/07/17 11:53:56;;;;;;;3.58;1.08;;;21.40;87.60;;;;;;5015389;28;20026;-77
2023/07/17 11:56:34;;;;;;;4.22;1.40;;;21.40;87.70;;;;;;5015561;28;20042;-76
2023/07/17 11:59:00;;;;;;;4.28;1.25;;;21.30;87.10;;;;;;4997807;28;20030;-77
2023/07/17 12:01:25;;;;;;;3.03;1.40;;;21.20;87.40;;;;;;5014966;28;20438;-77
2023/07/17 12:03:51;;;;;;;4.75;1.38;;;21.10;86.70;;;;;;5015134;28;20030;-77
2023/07/17 12:06:16;;;;;;;4.30;1.30;;;21.10;86.80;;;;;;5014979;28;20049;-76
2023/07/17 12:08:43;;;;;;;5.47;1.58;;;21.10;87.40;;;;;;5015004;28;20030;-79
2023/07/17 12:11:09;;;;;;;3.70;1.30;;;21.10;87.90;;;;;;5014554;28;20124;-78
2023/07/17 12:13:35;;;;;;;6.15;1.67;;;21.10;88.00;;;;;;5014560;28;20066;-79
2023/07/17 12:16:01;;;;;;;4.45;2.15;;;21.10;88.60;;;;;;4997068;28;20037;-80
2023/07/17 12:18:26;;;;;;;5.30;1.95;;;21.10;89.30;;;;;;5013701;28;20080;-80
2023/07/17 12:20:52;;;;;;;7.10;2.45;;;21.00;89.20;;;;;;5014722;28;20026;-77
2023/07/17 12:23:18;;;;;;;6.78;2.15;;;21.00;89.40;;;;;;5014579;28;20109;-79
2023/07/17 12:25:45;;;;;;;7.15;2.53;;;20.80;90.00;;;;;;5014275;28;20177;-79
2023/07/17 12:28:11;;;;;;;7.78;2.72;;;20.80;90.30;;;;;;5014619;28;20084;-79
2023/07/17 12:30:36;;;;;;;8.65;3.33;;;20.70;90.30;;;;;;5014495;28;20033;-78
2023/07/17 12:33:02;;;;;;;6.10;2.42;;;20.60;89.80;;;;;;5014709;28;20037;-78
2023/07/17 12:35:28;;;;;;;7.85;3.15;;;20.50;90.40;;;;;;5014213;28;20069;-77
2023/07/17 12:37:54;;;;;;;7.30;2.78;;;20.60;90.50;;;;;;4996572;28;20053;-80
2023/07/17 12:40:19;;;;;;;6.80;2.67;;;20.60;90.40;;;;;;4996656;28;20057;-80
2023/07/17 12:42:45;;;;;;;5.88;2.10;;;20.80;90.40;;;;;;5013844;28;20492;-77